sensor_id;sensor_type;location;lat;lon;timestamp;P1;durP1;ratioP1;P2;durP2;ratioP2
26634;SDS011;14490;54.208;37.686;2023-07-02T00:00:02;3.50;;;3.13;;
26634;SDS011;14490;54.208;37.686;2023-07-02T00:02:31;8.15;;;2.78;;
26634;SDS011;14490;54.208;37.686;2023-07-02T00:04:58;3.92;;;2.90;;
26634;SDS011;14490;54.208;37.686;2023-07-02T00:07:25;4.30;;;3.13;;
26634;SDS011;14490;54.208;37.686;2023-07-02T00:09:53;4.13;;;2.92;;
26634;SDS011;14490;54.208;37.686;2023-07-02T00:12:20;3.90;;;3.17;;
26634;SDS011;14490;54.208;37.686;2023-07-02T00:14:49;4.57;;;3.35;;
26634;SDS011;14490;54.208;37.686;2023-07-02T00:17:18;3.70;;;3.08;;
26634;SDS011;14490;54.208;37.686;2023-07-02T00:19:45;2.85;;;2.58;;
26634;SDS011;14490;54.208;37.686;2023-07-02T00:22:16;7.85;;;3.05;;
26634;SDS011;14490;54.208;37.686;2023-07-02T00:24:44;3.25;;;2.72;;
26634;SDS011;14490;54.208;37.686;2023-07-02T00:27:11;3.20;;;2.90;;
26634;SDS011;14490;54.208;37.686;2023-07-02T00:29:39;5.47;;;3.13;;
26634;SDS011;14490;54.208;37.686;2023-07-02T00:32:08;4.60;;;3.58;;
26634;SDS011;14490;54.208;37.686;2023-07-02T00:34:35;2.88;;;2.67;;
26634;SDS011;14490;54.208;37.686;2023-07-02T00:37:02;2.80;;;2.60;;
26634;SDS011;14490;54.208;37.686;2023-07-02T00:39:30;3.88;;;3.30;;
26634;SDS011;14490;54.208;37.686;2023-07-02T00:42:00;3.33;;;2.85;;
26634;SDS011;14490;54.208;37.686;2023-07-02T00:44:28;7.57;;;2.75;;
26634;SDS011;14490;54.208;37.686;2023-07-02T00:46:55;3.88;;;3.00;;
26634;SDS011;14490;54.208;37.686;2023-07-02T00:49:24;4.95;;;2.67;;
26634;SDS011;14490;54.208;37.686;2023-07-02T00:51:52;4.10;;;3.22;;
26634;SDS011;14490;54.208;37.686;2023-07-02T00:54:19;5.75;;;3.55;;
26634;SDS011;14490;54.208;37.686;2023-07-02T00:56:47;4.35;;;2.28;;
26634;SDS011;14490;54.208;37.686;2023-07-02T00:59:15;5.10;;;2.58;;
26634;SDS011;14490;54.208;37.686;2023-07-02T01:01:43;4.95;;;2.28;;
26634;SDS011;14490;54.208;37.686;2023-07-02T01:04:16;3.13;;;2.33;;
26634;SDS011;14490;54.208;37.686;2023-07-02T01:06:45;3.08;;;2.30;;
26634;SDS011;14490;54.208;37.686;2023-07-02T01:09:13;4.68;;;2.40;;
26634;SDS011;14490;54.208;37.686;2023-07-02T01:11:41;4.55;;;2.35;;
26634;SDS011;14490;54.208;37.686;2023-07-02T01:14:13;3.28;;;2.97;;
26634;SDS011;14490;54.208;37.686;2023-07-02T01:16:45;3.13;;;2.45;;
26634;SDS011;14490;54.208;37.686;2023-07-02T01:19:16;3.10;;;2.67;;
26634;SDS011;14490;54.208;37.686;2023-07-02T01:21:49;4.68;;;2.25;;
26634;SDS011;14490;54.208;37.686;2023-07-02T01:24:16;2.67;;;2.47;;
26634;SDS011;14490;54.208;37.686;2023-07-02T01:26:46;3.00;;;2.47;;
26634;SDS011;14490;54.208;37.686;2023-07-02T01:29:16;3.38;;;2.70;;
26634;SDS011;14490;54.208;37.686;2023-07-02T01:31:44;4.10;;;2.80;;
26634;SDS011;14490;54.208;37.686;2023-07-02T01:34:13;2.63;;;2.15;;
26634;SDS011;14490;54.208;37.686;2023-07-02T01:36:41;5.53;;;2.35;;
26634;SDS011;14490;54.208;37.686;2023-07-02T01:39:10;2.95;;;2.60;;
26634;SDS011;14490;54.208;37.686;2023-07-02T01:41:38;2.42;;;2.22;;
26634;SDS011;14490;54.208;37.686;2023-07-02T01:44:10;2.58;;;2.38;;
26634;SDS011;14490;54.208;37.686;2023-07-02T01:46:38;2.72;;;2.42;;
26634;SDS011;14490;54.208;37.686;2023-07-02T01:49:05;3.15;;;2.55;;
26634;SDS011;14490;54.208;37.686;2023-07-02T01:51:32;3.45;;;2.22;;
26634;SDS011;14490;54.208;37.686;2023-07-02T01:54:00;3.22;;;2.45;;
26634;SDS011;14490;54.208;37.686;2023-07-02T01:56:29;2.88;;;2.17;;
26634;SDS011;14490;54.208;37.686;2023-07-02T01:58:58;2.87;;;2.67;;
26634;SDS011;14490;54.208;37.686;2023-07-02T02:01:25;2.45;;;2.25;;
26634;SDS011;14490;54.208;37.686;2023-07-02T02:03:53;4.60;;;2.13;;
26634;SDS011;14490;54.208;37.686;2023-07-02T02:06:20;3.55;;;2.42;;
26634;SDS011;14490;54.208;37.686;2023-07-02T02:08:47;5.43;;;2.70;;
26634;SDS011;14490;54.208;37.686;2023-07-02T02:11:15;3.30;;;2.15;;
26634;SDS011;14490;54.208;37.686;2023-07-02T02:13:44;3.05;;;2.50;;
26634;SDS011;14490;54.208;37.686;2023-07-02T02:16:11;3.42;;;2.10;;
26634;SDS011;14490;54.208;37.686;2023-07-02T02:18:38;4.35;;;2.33;;
26634;SDS011;14490;54.208;37.686;2023-07-02T02:21:06;3.85;;;2.42;;
26634;SDS011;14490;54.208;37.686;2023-07-02T02:23:33;3.92;;;2.42;;
26634;SDS011;14490;54.208;37.686;2023-07-02T02:26:01;2.83;;;2.40;;
26634;SDS011;14490;54.208;37.686;2023-07-02T02:28:35;2.83;;;2.63;;
26634;SDS011;14490;54.208;37.686;2023-07-02T02:31:04;2.50;;;2.08;;
26634;SDS011;14490;54.208;37.686;2023-07-02T02:33:33;4.20;;;3.25;;
26634;SDS011;14490;54.208;37.686;2023-07-02T02:36:01;2.60;;;2.40;;
26634;SDS011;14490;54.208;37.686;2023-07-02T02:38:29;3.38;;;2.83;;
26634;SDS011;14490;54.208;37.686;2023-07-02T02:40:56;2.50;;;2.30;;
26634;SDS011;14490;54.208;37.686;2023-07-02T02:43:23;4.22;;;3.08;;
26634;SDS011;14490;54.208;37.686;2023-07-02T02:45:51;3.75;;;2.70;;
26634;SDS011;14490;54.208;37.686;2023-07-02T02:48:20;3.50;;;2.55;;
26634;SDS011;14490;54.208;37.686;2023-07-02T02:50:48;3.70;;;2.65;;
26634;SDS011;14490;54.208;37.686;2023-07-02T02:53:15;3.65;;;2.50;;
26634;SDS011;14490;54.208;37.686;2023-07-02T02:55:43;2.97;;;2.70;;
26634;SDS011;14490;54.208;37.686;2023-07-02T02:58:10;2.80;;;2.60;;
26634;SDS011;14490;54.208;37.686;2023-07-02T03:00:38;4.82;;;2.28;;
26634;SDS011;14490;54.208;37.686;2023-07-02T03:03:08;4.10;;;2.33;;
26634;SDS011;14490;54.208;37.686;2023-07-02T03:05:37;2.75;;;2.55;;
26634;SDS011;14490;54.208;37.686;2023-07-02T03:08:05;4.32;;;4.00;;
26634;SDS011;14490;54.208;37.686;2023-07-02T03:10:32;2.95;;;2.75;;
26634;SDS011;14490;54.208;37.686;2023-07-02T03:13:00;3.17;;;2.90;;
26634;SDS011;14490;54.208;37.686;2023-07-02T03:15:27;4.47;;;3.10;;
26634;SDS011;14490;54.208;37.686;2023-07-02T03:17:56;3.60;;;2.85;;
26634;SDS011;14490;54.208;37.686;2023-07-02T03:20:23;3.55;;;2.60;;
26634;SDS011;14490;54.208;37.686;2023-07-02T03:22:52;3.72;;;2.80;;
26634;SDS011;14490;54.208;37.686;2023-07-02T03:25:19;4.85;;;3.03;;
26634;SDS011;14490;54.208;37.686;2023-07-02T03:27:47;3.28;;;2.97;;
26634;SDS011;14490;54.208;37.686;2023-07-02T03:30:14;6.50;;;2.97;;
26634;SDS011;14490;54.208;37.686;2023-07-02T03:32:43;2.55;;;2.35;;
26634;SDS011;14490;54.208;37.686;2023-07-02T03:35:10;4.63;;;2.35;;
26634;SDS011;14490;54.208;37.686;2023-07-02T03:37:43;3.55;;;2.55;;
26634;SDS011;14490;54.208;37.686;2023-07-02T03:40:26;4.28;;;2.75;;
26634;SDS011;14490;54.208;37.686;2023-07-02T03:42:54;3.00;;;2.80;;
26634;SDS011;14490;54.208;37.686;2023-07-02T03:45:21;2.72;;;2.40;;
26634;SDS011;14490;54.208;37.686;2023-07-02T03:47:49;4.18;;;3.47;;
26634;SDS011;14490;54.208;37.686;2023-07-02T03:50:16;3.78;;;2.53;;
26634;SDS011;14490;54.208;37.686;2023-07-02T03:52:43;2.75;;;2.55;;
26634;SDS011;14490;54.208;37.686;2023-07-02T03:55:15;4.60;;;3.03;;
26634;SDS011;14490;54.208;37.686;2023-07-02T03:57:43;2.80;;;2.58;;
26634;SDS011;14490;54.208;37.686;2023-07-02T04:00:10;4.35;;;2.85;;
26634;SDS011;14490;54.208;37.686;2023-07-02T04:02:38;6.95;;;3.20;;
26634;SDS011;14490;54.208;37.686;2023-07-02T04:05:06;3.97;;;2.63;;
26634;SDS011;14490;54.208;37.686;2023-07-02T04:07:33;6.80;;;4.45;;
26634;SDS011;14490;54.208;37.686;2023-07-02T04:10:01;3.35;;;3.05;;
26634;SDS011;14490;54.208;37.686;2023-07-02T04:12:30;3.88;;;2.85;;
26634;SDS011;14490;54.208;37.686;2023-07-02T04:14:57;4.85;;;3.15;;
26634;SDS011;14490;54.208;37.686;2023-07-02T04:17:25;3.20;;;2.90;;
26634;SDS011;14490;54.208;37.686;2023-07-02T04:19:53;6.47;;;3.83;;
26634;SDS011;14490;54.208;37.686;2023-07-02T04:22:21;3.78;;;3.28;;
26634;SDS011;14490;54.208;37.686;2023-07-02T04:24:48;3.88;;;3.05;;
26634;SDS011;14490;54.208;37.686;2023-07-02T04:27:16;4.20;;;3.38;;
26634;SDS011;14490;54.208;37.686;2023-07-02T04:29:45;4.70;;;3.45;;
26634;SDS011;14490;54.208;37.686;2023-07-02T04:32:12;3.67;;;3.35;;
26634;SDS011;14490;54.208;37.686;2023-07-02T04:34:40;3.33;;;3.08;;
26634;SDS011;14490;54.208;37.686;2023-07-02T04:37:08;2.95;;;2.60;;
26634;SDS011;14490;54.208;37.686;2023-07-02T04:39:36;3.63;;;3.20;;
26634;SDS011;14490;54.208;37.686;2023-07-02T04:42:04;6.30;;;3.63;;
26634;SDS011;14490;54.208;37.686;2023-07-02T04:44:32;3.70;;;3.40;;
26634;SDS011;14490;54.208;37.686;2023-07-02T04:47:01;10.20;;;3.03;;
26634;SDS011;14490;54.208;37.686;2023-07-02T04:49:29;4.17;;;3.80;;
26634;SDS011;14490;54.208;37.686;2023-07-02T04:51:57;4.90;;;3.55;;
26634;SDS011;14490;54.208;37.686;2023-07-02T04:54:24;6.32;;;3.28;;
26634;SDS011;14490;54.208;37.686;2023-07-02T04:56:52;3.47;;;3.17;;
26634;SDS011;14490;54.208;37.686;2023-07-02T04:59:20;4.15;;;3.08;;
26634;SDS011;14490;54.208;37.686;2023-07-02T05:01:48;3.85;;;3.50;;
26634;SDS011;14490;54.208;37.686;2023-07-02T05:04:17;4.22;;;3.08;;
26634;SDS011;14490;54.208;37.686;2023-07-02T05:06:44;4.03;;;3.33;;
26634;SDS011;14490;54.208;37.686;2023-07-02T05:09:12;3.50;;;3.20;;
26634;SDS011;14490;54.208;37.686;2023-07-02T05:11:39;6.10;;;3.60;;
26634;SDS011;14490;54.208;37.686;2023-07-02T05:14:06;3.90;;;3.17;;
26634;SDS011;14490;54.208;37.686;2023-07-02T05:16:34;3.03;;;2.75;;
26634;SDS011;14490;54.208;37.686;2023-07-02T05:19:01;3.80;;;3.40;;
26634;SDS011;14490;54.208;37.686;2023-07-02T05:21:30;4.50;;;2.83;;
26634;SDS011;14490;54.208;37.686;2023-07-02T05:23:57;4.75;;;3.45;;
26634;SDS011;14490;54.208;37.686;2023-07-02T05:26:25;4.88;;;2.72;;
26634;SDS011;14490;54.208;37.686;2023-07-02T05:28:52;6.70;;;2.67;;
26634;SDS011;14490;54.208;37.686;2023-07-02T05:31:20;6.43;;;3.05;;
26634;SDS011;14490;54.208;37.686;2023-07-02T05:33:47;4.72;;;3.10;;
26634;SDS011;14490;54.208;37.686;2023-07-02T05:36:15;4.63;;;2.53;;
26634;SDS011;14490;54.208;37.686;2023-07-02T05:38:44;7.57;;;3.20;;
26634;SDS011;14490;54.208;37.686;2023-07-02T05:41:12;3.63;;;2.15;;
26634;SDS011;14490;54.208;37.686;2023-07-02T05:43:45;6.40;;;3.83;;
26634;SDS011;14490;54.208;37.686;2023-07-02T05:46:12;3.85;;;3.13;;
26634;SDS011;14490;54.208;37.686;2023-07-02T05:48:41;3.80;;;3.40;;
26634;SDS011;14490;54.208;37.686;2023-07-02T05:51:08;5.18;;;3.78;;
26634;SDS011;14490;54.208;37.686;2023-07-02T05:53:36;3.67;;;3.38;;
26634;SDS011;14490;54.208;37.686;2023-07-02T05:56:05;3.90;;;3.58;;
26634;SDS011;14490;54.208;37.686;2023-07-02T05:58:33;6.80;;;4.05;;
26634;SDS011;14490;54.208;37.686;2023-07-02T06:01:00;6.07;;;3.10;;
26634;SDS011;14490;54.208;37.686;2023-07-02T06:03:28;11.98;;;3.45;;
26634;SDS011;14490;54.208;37.686;2023-07-02T06:05:55;5.32;;;3.20;;
26634;SDS011;14490;54.208;37.686;2023-07-02T06:08:22;5.05;;;3.20;;
26634;SDS011;14490;54.208;37.686;2023-07-02T06:10:50;4.35;;;2.83;;
26634;SDS011;14490;54.208;37.686;2023-07-02T06:13:19;3.40;;;2.97;;
26634;SDS011;14490;54.208;37.686;2023-07-02T06:15:46;6.25;;;2.67;;
26634;SDS011;14490;54.208;37.686;2023-07-02T06:18:14;6.18;;;2.72;;
26634;SDS011;14490;54.208;37.686;2023-07-02T06:20:42;4.00;;;3.30;;
26634;SDS011;14490;54.208;37.686;2023-07-02T06:23:10;3.80;;;3.40;;
26634;SDS011;14490;54.208;37.686;2023-07-02T06:25:37;6.35;;;3.45;;
26634;SDS011;14490;54.208;37.686;2023-07-02T06:28:09;4.22;;;3.17;;
26634;SDS011;14490;54.208;37.686;2023-07-02T06:30:41;3.00;;;2.70;;
26634;SDS011;14490;54.208;37.686;2023-07-02T06:33:08;4.88;;;2.80;;
26634;SDS011;14490;54.208;37.686;2023-07-02T06:35:37;3.17;;;2.47;;
26634;SDS011;14490;54.208;37.686;2023-07-02T06:38:06;5.18;;;3.13;;
26634;SDS011;14490;54.208;37.686;2023-07-02T06:40:34;3.85;;;2.80;;
26634;SDS011;14490;54.208;37.686;2023-07-02T06:43:01;6.35;;;3.25;;
26634;SDS011;14490;54.208;37.686;2023-07-02T06:45:29;4.07;;;3.22;;
26634;SDS011;14490;54.208;37.686;2023-07-02T06:47:59;4.72;;;3.25;;
26634;SDS011;14490;54.208;37.686;2023-07-02T06:50:26;3.88;;;2.80;;
26634;SDS011;14490;54.208;37.686;2023-07-02T06:52:54;8.85;;;3.40;;
26634;SDS011;14490;54.208;37.686;2023-07-02T06:55:21;3.67;;;3.28;;
26634;SDS011;14490;54.208;37.686;2023-07-02T06:57:49;4.15;;;3.10;;
26634;SDS011;14490;54.208;37.686;2023-07-02T07:00:18;7.10;;;3.05;;
26634;SDS011;14490;54.208;37.686;2023-07-02T07:02:46;4.15;;;3.00;;
26634;SDS011;14490;54.208;37.686;2023-07-02T07:05:15;4.63;;;3.17;;
26634;SDS011;14490;54.208;37.686;2023-07-02T07:07:44;4.20;;;3.47;;
26634;SDS011;14490;54.208;37.686;2023-07-02T07:10:12;7.13;;;2.35;;
26634;SDS011;14490;54.208;37.686;2023-07-02T07:12:39;4.72;;;3.63;;
26634;SDS011;14490;54.208;37.686;2023-07-02T07:15:07;8.13;;;3.15;;
26634;SDS011;14490;54.208;37.686;2023-07-02T07:17:35;8.10;;;3.75;;
26634;SDS011;14490;54.208;37.686;2023-07-02T07:20:04;4.38;;;3.45;;
26634;SDS011;14490;54.208;37.686;2023-07-02T07:22:34;8.13;;;3.47;;
26634;SDS011;14490;54.208;37.686;2023-07-02T07:25:02;7.28;;;3.63;;
26634;SDS011;14490;54.208;37.686;2023-07-02T07:27:30;5.43;;;3.65;;
26634;SDS011;14490;54.208;37.686;2023-07-02T07:29:57;5.55;;;4.22;;
26634;SDS011;14490;54.208;37.686;2023-07-02T07:32:24;4.82;;;3.90;;
26634;SDS011;14490;54.208;37.686;2023-07-02T07:34:52;8.48;;;3.75;;
26634;SDS011;14490;54.208;37.686;2023-07-02T07:37:19;6.65;;;3.75;;
26634;SDS011;14490;54.208;37.686;2023-07-02T07:39:51;5.13;;;3.80;;
26634;SDS011;14490;54.208;37.686;2023-07-02T07:42:21;6.82;;;3.45;;
26634;SDS011;14490;54.208;37.686;2023-07-02T07:44:49;5.95;;;3.10;;
26634;SDS011;14490;54.208;37.686;2023-07-02T07:47:16;6.30;;;3.45;;
26634;SDS011;14490;54.208;37.686;2023-07-02T07:49:47;6.57;;;3.60;;
26634;SDS011;14490;54.208;37.686;2023-07-02T07:52:14;4.90;;;3.83;;
26634;SDS011;14490;54.208;37.686;2023-07-02T07:54:42;7.22;;;3.60;;
26634;SDS011;14490;54.208;37.686;2023-07-02T07:57:14;6.15;;;3.33;;
26634;SDS011;14490;54.208;37.686;2023-07-02T07:59:41;4.97;;;4.10;;
26634;SDS011;14490;54.208;37.686;2023-07-02T08:02:09;6.10;;;3.28;;
26634;SDS011;14490;54.208;37.686;2023-07-02T08:04:36;4.93;;;2.90;;
26634;SDS011;14490;54.208;37.686;2023-07-02T08:07:04;4.07;;;3.40;;
26634;SDS011;14490;54.208;37.686;2023-07-02T08:09:34;5.97;;;3.78;;
26634;SDS011;14490;54.208;37.686;2023-07-02T08:12:01;6.60;;;4.00;;
26634;SDS011;14490;54.208;37.686;2023-07-02T08:14:31;6.03;;;4.07;;
26634;SDS011;14490;54.208;37.686;2023-07-02T08:17:03;4.70;;;4.15;;
26634;SDS011;14490;54.208;37.686;2023-07-02T08:19:31;6.20;;;3.25;;
26634;SDS011;14490;54.208;37.686;2023-07-02T08:22:03;5.68;;;3.28;;
26634;SDS011;14490;54.208;37.686;2023-07-02T08:24:32;8.50;;;4.05;;
26634;SDS011;14490;54.208;37.686;2023-07-02T08:26:59;4.65;;;3.35;;
26634;SDS011;14490;54.208;37.686;2023-07-02T08:29:32;5.40;;;3.28;;
26634;SDS011;14490;54.208;37.686;2023-07-02T08:32:00;6.00;;;4.30;;
26634;SDS011;14490;54.208;37.686;2023-07-02T08:34:28;6.55;;;3.88;;
26634;SDS011;14490;54.208;37.686;2023-07-02T08:36:56;5.68;;;3.67;;
26634;SDS011;14490;54.208;37.686;2023-07-02T08:39:23;5.93;;;3.88;;
26634;SDS011;14490;54.208;37.686;2023-07-02T08:41:51;4.63;;;3.72;;
26634;SDS011;14490;54.208;37.686;2023-07-02T08:44:20;6.53;;;3.90;;
26634;SDS011;14490;54.208;37.686;2023-07-02T08:46:55;5.18;;;3.92;;
26634;SDS011;14490;54.208;37.686;2023-07-02T08:49:26;3.08;;;2.47;;
26634;SDS011;14490;54.208;37.686;2023-07-02T08:51:54;5.60;;;3.83;;
26634;SDS011;14490;54.208;37.686;2023-07-02T08:54:21;4.70;;;3.92;;
26634;SDS011;14490;54.208;37.686;2023-07-02T08:56:50;4.30;;;3.70;;
26634;SDS011;14490;54.208;37.686;2023-07-02T08:59:18;6.50;;;3.92;;
26634;SDS011;14490;54.208;37.686;2023-07-02T09:01:59;6.65;;;3.80;;
26634;SDS011;14490;54.208;37.686;2023-07-02T09:04:26;8.13;;;3.35;;
26634;SDS011;14490;54.208;37.686;2023-07-02T09:07:03;4.28;;;3.60;;
26634;SDS011;14490;54.208;37.686;2023-07-02T09:09:34;6.03;;;4.20;;
26634;SDS011;14490;54.208;37.686;2023-07-02T09:12:24;6.00;;;4.78;;
26634;SDS011;14490;54.208;37.686;2023-07-02T09:14:55;4.07;;;3.67;;
26634;SDS011;14490;54.208;37.686;2023-07-02T09:17:29;5.13;;;4.07;;
26634;SDS011;14490;54.208;37.686;2023-07-02T09:20:01;5.80;;;3.63;;
26634;SDS011;14490;54.208;37.686;2023-07-02T09:22:33;5.78;;;3.13;;
26634;SDS011;14490;54.208;37.686;2023-07-02T09:25:04;5.28;;;3.10;;
26634;SDS011;14490;54.208;37.686;2023-07-02T09:27:34;6.07;;;3.50;;
26634;SDS011;14490;54.208;37.686;2023-07-02T09:30:07;3.83;;;3.35;;
26634;SDS011;14490;54.208;37.686;2023-07-02T09:32:40;3.97;;;3.58;;
26634;SDS011;14490;54.208;37.686;2023-07-02T09:35:07;5.97;;;4.00;;
26634;SDS011;14490;54.208;37.686;2023-07-02T09:37:35;6.45;;;3.25;;
26634;SDS011;14490;54.208;37.686;2023-07-02T09:42:34;5.35;;;3.35;;
26634;SDS011;14490;54.208;37.686;2023-07-02T09:50:11;4.60;;;3.40;;
26634;SDS011;14490;54.208;37.686;2023-07-02T09:52:40;4.57;;;3.75;;
26634;SDS011;14490;54.208;37.686;2023-07-02T09:55:08;9.40;;;3.95;;
26634;SDS011;14490;54.208;37.686;2023-07-02T09:57:36;4.18;;;3.63;;
26634;SDS011;14490;54.208;37.686;2023-07-02T10:00:05;3.60;;;3.10;;
26634;SDS011;14490;54.208;37.686;2023-07-02T10:02:34;4.93;;;3.72;;
26634;SDS011;14490;54.208;37.686;2023-07-02T10:05:08;5.57;;;3.33;;
26634;SDS011;14490;54.208;37.686;2023-07-02T10:07:35;6.50;;;3.83;;
26634;SDS011;14490;54.208;37.686;2023-07-02T10:10:03;5.53;;;4.13;;
26634;SDS011;14490;54.208;37.686;2023-07-02T10:12:31;5.80;;;3.60;;
26634;SDS011;14490;54.208;37.686;2023-07-02T10:14:59;6.00;;;3.47;;
26634;SDS011;14490;54.208;37.686;2023-07-02T10:17:27;6.50;;;3.88;;
26634;SDS011;14490;54.208;37.686;2023-07-02T10:19:56;6.78;;;2.83;;
26634;SDS011;14490;54.208;37.686;2023-07-02T10:22:26;5.20;;;4.05;;
26634;SDS011;14490;54.208;37.686;2023-07-02T10:25:08;13.95;;;3.83;;
26634;SDS011;14490;54.208;37.686;2023-07-02T10:27:36;4.55;;;4.15;;
26634;SDS011;14490;54.208;37.686;2023-07-02T10:30:06;5.80;;;4.40;;
26634;SDS011;14490;54.208;37.686;2023-07-02T10:32:36;9.00;;;4.38;;
26634;SDS011;14490;54.208;37.686;2023-07-02T10:35:15;6.43;;;4.43;;
26634;SDS011;14490;54.208;37.686;2023-07-02T10:37:45;5.70;;;4.15;;
26634;SDS011;14490;54.208;37.686;2023-07-02T10:42:47;8.25;;;3.80;;
26634;SDS011;14490;54.208;37.686;2023-07-02T10:45:17;7.65;;;3.35;;
26634;SDS011;14490;54.208;37.686;2023-07-02T10:47:57;3.72;;;3.38;;
26634;SDS011;14490;54.208;37.686;2023-07-02T10:50:42;6.65;;;4.22;;
26634;SDS011;14490;54.208;37.686;2023-07-02T10:53:15;6.20;;;3.33;;
26634;SDS011;14490;54.208;37.686;2023-07-02T10:55:44;5.80;;;3.50;;
26634;SDS011;14490;54.208;37.686;2023-07-02T10:58:20;4.40;;;3.40;;
26634;SDS011;14490;54.208;37.686;2023-07-02T11:00:48;6.43;;;3.90;;
26634;SDS011;14490;54.208;37.686;2023-07-02T11:03:17;6.13;;;3.78;;
26634;SDS011;14490;54.208;37.686;2023-07-02T11:05:45;11.57;;;4.47;;
26634;SDS011;14490;54.208;37.686;2023-07-02T11:08:15;7.32;;;4.68;;
26634;SDS011;14490;54.208;37.686;2023-07-02T11:10:43;8.25;;;3.85;;
26634;SDS011;14490;54.208;37.686;2023-07-02T11:13:11;6.95;;;4.55;;
26634;SDS011;14490;54.208;37.686;2023-07-02T11:15:39;6.18;;;4.13;;
26634;SDS011;14490;54.208;37.686;2023-07-02T11:18:09;6.10;;;4.40;;
26634;SDS011;14490;54.208;37.686;2023-07-02T11:20:37;5.22;;;4.35;;
26634;SDS011;14490;54.208;37.686;2023-07-02T11:23:17;7.40;;;4.53;;
26634;SDS011;14490;54.208;37.686;2023-07-02T11:25:57;4.38;;;3.13;;
26634;SDS011;14490;54.208;37.686;2023-07-02T11:28:25;4.72;;;3.72;;
26634;SDS011;14490;54.208;37.686;2023-07-02T11:30:59;5.18;;;3.45;;
26634;SDS011;14490;54.208;37.686;2023-07-02T11:33:35;4.78;;;4.25;;
26634;SDS011;14490;54.208;37.686;2023-07-02T11:36:03;6.57;;;3.45;;
26634;SDS011;14490;54.208;37.686;2023-07-02T11:38:34;4.60;;;3.85;;
26634;SDS011;14490;54.208;37.686;2023-07-02T11:41:02;5.55;;;4.05;;
26634;SDS011;14490;54.208;37.686;2023-07-02T11:43:30;8.23;;;5.00;;
26634;SDS011;14490;54.208;37.686;2023-07-02T11:45:58;3.60;;;2.60;;
26634;SDS011;14490;54.208;37.686;2023-07-02T11:48:25;4.05;;;3.65;;
26634;SDS011;14490;54.208;37.686;2023-07-02T11:50:53;6.95;;;5.07;;
26634;SDS011;14490;54.208;37.686;2023-07-02T11:53:20;7.45;;;4.70;;
26634;SDS011;14490;54.208;37.686;2023-07-02T11:55:49;5.18;;;4.20;;
26634;SDS011;14490;54.208;37.686;2023-07-02T11:58:17;5.72;;;4.07;;
26634;SDS011;14490;54.208;37.686;2023-07-02T12:00:47;3.55;;;2.67;;
26634;SDS011;14490;54.208;37.686;2023-07-02T12:03:15;7.53;;;4.60;;
26634;SDS011;14490;54.208;37.686;2023-07-02T12:05:42;4.38;;;3.97;;
26634;SDS011;14490;54.208;37.686;2023-07-02T12:08:10;4.68;;;4.28;;
26634;SDS011;14490;54.208;37.686;2023-07-02T12:10:37;6.78;;;4.15;;
26634;SDS011;14490;54.208;37.686;2023-07-02T12:13:06;5.88;;;4.50;;
26634;SDS011;14490;54.208;37.686;2023-07-02T12:15:33;8.27;;;4.80;;
26634;SDS011;14490;54.208;37.686;2023-07-02T12:18:01;5.63;;;4.13;;
26634;SDS011;14490;54.208;37.686;2023-07-02T12:20:29;5.80;;;4.30;;
26634;SDS011;14490;54.208;37.686;2023-07-02T12:22:56;11.32;;;4.75;;
26634;SDS011;14490;54.208;37.686;2023-07-02T12:25:23;5.13;;;4.63;;
26634;SDS011;14490;54.208;37.686;2023-07-02T12:27:51;7.18;;;3.92;;
26634;SDS011;14490;54.208;37.686;2023-07-02T12:30:20;4.32;;;3.92;;
26634;SDS011;14490;54.208;37.686;2023-07-02T12:32:47;6.78;;;4.88;;
26634;SDS011;14490;54.208;37.686;2023-07-02T12:35:15;8.25;;;5.00;;
26634;SDS011;14490;54.208;37.686;2023-07-02T12:37:42;5.72;;;4.03;;
26634;SDS011;14490;54.208;37.686;2023-07-02T12:40:11;5.10;;;4.70;;
26634;SDS011;14490;54.208;37.686;2023-07-02T12:42:38;9.73;;;4.78;;
26634;SDS011;14490;54.208;37.686;2023-07-02T12:45:08;6.10;;;4.20;;
26634;SDS011;14490;54.208;37.686;2023-07-02T12:47:38;5.45;;;4.85;;
26634;SDS011;14490;54.208;37.686;2023-07-02T12:50:06;4.30;;;3.00;;
26634;SDS011;14490;54.208;37.686;2023-07-02T12:52:35;5.03;;;4.45;;
26634;SDS011;14490;54.208;37.686;2023-07-02T12:55:22;6.65;;;4.80;;
26634;SDS011;14490;54.208;37.686;2023-07-02T12:58:18;7.45;;;4.55;;
26634;SDS011;14490;54.208;37.686;2023-07-02T13:01:28;5.80;;;4.45;;
26634;SDS011;14490;54.208;37.686;2023-07-02T13:04:16;7.63;;;5.32;;
26634;SDS011;14490;54.208;37.686;2023-07-02T13:32:18;5.30;;;4.80;;
26634;SDS011;14490;54.208;37.686;2023-07-02T13:35:10;6.60;;;6.00;;
26634;SDS011;14490;54.208;37.686;2023-07-02T13:48:04;5.93;;;5.10;;
26634;SDS011;14490;54.208;37.686;2023-07-02T13:57:58;6.72;;;5.22;;
26634;SDS011;14490;54.208;37.686;2023-07-02T14:00:30;10.00;;;5.65;;
26634;SDS011;14490;54.208;37.686;2023-07-02T14:02:57;7.88;;;6.03;;
26634;SDS011;14490;54.208;37.686;2023-07-02T14:05:25;6.22;;;5.57;;
26634;SDS011;14490;54.208;37.686;2023-07-02T14:07:53;7.25;;;5.47;;
26634;SDS011;14490;54.208;37.686;2023-07-02T14:10:20;8.90;;;5.15;;
26634;SDS011;14490;54.208;37.686;2023-07-02T14:12:48;10.48;;;5.90;;
26634;SDS011;14490;54.208;37.686;2023-07-02T14:15:15;9.57;;;5.53;;
26634;SDS011;14490;54.208;37.686;2023-07-02T14:17:44;8.85;;;6.15;;
26634;SDS011;14490;54.208;37.686;2023-07-02T14:20:12;6.90;;;5.72;;
26634;SDS011;14490;54.208;37.686;2023-07-02T14:22:42;6.10;;;5.50;;
26634;SDS011;14490;54.208;37.686;2023-07-02T14:25:50;6.82;;;4.93;;
26634;SDS011;14490;54.208;37.686;2023-07-02T14:28:19;5.53;;;5.03;;
26634;SDS011;14490;54.208;37.686;2023-07-02T14:31:26;11.90;;;5.55;;
26634;SDS011;14490;54.208;37.686;2023-07-02T14:33:55;7.93;;;6.20;;
26634;SDS011;14490;54.208;37.686;2023-07-02T14:36:22;7.45;;;6.05;;
26634;SDS011;14490;54.208;37.686;2023-07-02T14:38:58;6.85;;;4.78;;
26634;SDS011;14490;54.208;37.686;2023-07-02T14:41:32;8.20;;;4.95;;
26634;SDS011;14490;54.208;37.686;2023-07-02T14:44:01;4.70;;;3.75;;
26634;SDS011;14490;54.208;37.686;2023-07-02T14:46:28;8.68;;;5.57;;
26634;SDS011;14490;54.208;37.686;2023-07-02T14:48:57;7.95;;;5.80;;
26634;SDS011;14490;54.208;37.686;2023-07-02T14:51:25;6.05;;;5.15;;
26634;SDS011;14490;54.208;37.686;2023-07-02T14:53:52;6.93;;;5.45;;
26634;SDS011;14490;54.208;37.686;2023-07-02T14:56:29;9.57;;;6.18;;
26634;SDS011;14490;54.208;37.686;2023-07-02T14:59:01;7.32;;;4.68;;
26634;SDS011;14490;54.208;37.686;2023-07-02T15:04:00;6.25;;;5.57;;
26634;SDS011;14490;54.208;37.686;2023-07-02T15:06:32;5.43;;;4.93;;
26634;SDS011;14490;54.208;37.686;2023-07-02T15:09:00;7.55;;;5.65;;
26634;SDS011;14490;54.208;37.686;2023-07-02T15:11:27;6.03;;;5.50;;
26634;SDS011;14490;54.208;37.686;2023-07-02T15:17:44;7.60;;;6.13;;
26634;SDS011;14490;54.208;37.686;2023-07-02T15:20:26;6.85;;;6.25;;
26634;SDS011;14490;54.208;37.686;2023-07-02T15:23:13;7.30;;;5.80;;
26634;SDS011;14490;54.208;37.686;2023-07-02T15:25:50;6.00;;;5.38;;
26634;SDS011;14490;54.208;37.686;2023-07-02T15:28:27;8.02;;;6.47;;
26634;SDS011;14490;54.208;37.686;2023-07-02T15:30:59;6.15;;;5.55;;
26634;SDS011;14490;54.208;37.686;2023-07-02T15:49:06;9.20;;;6.43;;
26634;SDS011;14490;54.208;37.686;2023-07-02T15:59:41;10.60;;;6.68;;
26634;SDS011;14490;54.208;37.686;2023-07-02T16:45:29;9.45;;;5.10;;
26634;SDS011;14490;54.208;37.686;2023-07-02T16:47:57;7.53;;;6.30;;
26634;SDS011;14490;54.208;37.686;2023-07-02T16:50:37;7.22;;;5.72;;
26634;SDS011;14490;54.208;37.686;2023-07-02T17:52:56;8.52;;;6.50;;